Relevés horaires Beauvechain (Belgique)


Relevés horaires à Beauvechain - Dimanche 29 Juill. 2018
Heure UTC1 Température [°C] Vent [km/h] Hum. [%] Pres.4 [hPa] Visi. [Km] Nébu. [octa] Préc.5 [mm] Cond.
2m. Res. Ros. Dir.2 Vit. Moy. Raf.3
23:00 22.1 22.1 13.1 S 5.6 -- 7.4 57 1013.7(0.6/3h) 20 -- -- --
22:00 22.2 22.2 13.1 S 3.7 -- 7.4 56 1013.5(1.0/3h) 20 -- -- --
21:00 23.1 23.1 13.0 SO 5.6 -- 13.0 53 1013.3(1.3/3h) 20 -- -- NA
20:00 23.3 23.3 12.8 OSO 5.6 -- 13.0 52 1013(1.3/3h) 20 -- -- NA
19:00 24.8 24.8 11.6 OSO 3.7 -- 13.0 44 1012.2(0.9/3h) 20 -- -- --
18:00 25.4 25.4 10.9 SO 7.4 -- 25.9 40 1011.7(0.5/3h) 20 -- -- --
17:00 25.5 25.5 10.4 SO 9.3 -- 18.5 39 1011.6(0.2/3h) 20 -- -- --
16:00 26.3 26.3 10.6 SO 11.1 -- 25.9 37 1011.2(-0.3/3h) 20 -- -- --
15:00 27.8 27.8 9.8 SSO 16.7 -- 25.9 32 1011.2(-0.6/3h) 20 -- -- --
14:00 27.1 27.1 8.9 SSO 13.0 -- 24.1 32 1011.2(-0.6/3h) 20 -- -- --
13:00 27.0 27.0 8.3 SSO 13.0 -- 25.9 31 1011.6(-0.4/3h) 20 -- -- --
12:00 25.2 25.2 7.7 SSO 13.0 -- 25.9 33 1011.8(-0.2/3h) 20 -- -- --
11:00 24.7 24.7 8.1 SSO 14.8 -- 25.9 35 1012(-0.4/3h) 20 -- -- --
10:00 24.0 24.0 9.3 SSO 13.0 -- 25.9 39 1012.2(-0.2/3h) 20 -- -- --
09:00 23.7 23.7 9.1 S 13.0 -- 22.2 39 1012.2(-0.3/3h) 20 -- -- --
08:00 22.2 22.2 8.6 S 13.0 -- 18.5 42 1012.6(-0.2/3h) 20 -- -- --
07:00 20.6 20.6 8.1 S 11.1 -- 14.8 45 1012.7(-0.3/3h) 20 -- -- --
06:00 18.2 18.2 8.8 S 7.4 -- 11.1 54 1012.8(-0.5/3h) 20 -- -- --
05:00 17.3 17.3 8.8 SSE 7.4 -- 9.3 57 1013.1(-0.7/3h) 20 -- -- --
04:00 16.8 16.8 9.6 SE 3.7 -- 7.4 62 1013.2(-1.0/3h) 20 -- -- --
03:00 16.9 16.9 8.6 SE 5.6 -- 11.1 58 1013.5(-0.8/3h) 20 -- -- --
02:00 17.2 17.2 7.8 ESE 3.7 -- 7.4 54 1013.7(-0.4/3h) 20 -- -- --
01:00 17.6 17.6 7.2 ESE 5.6 -- 7.4 50 1014.2(0.1/3h) 20 -- -- --
00:00 17.5 17.5 8.0 E 3.7 -- 14.8 54 1014.3(0.3/3h) 20 -- -- --

1 Coordinated Universal Time. Actuellement il est 21:00 locale et 20:00 UTC.

2 Le vent souffle depuis la direction indiquée vers la direction oposée.

3 Les rafales max. sont disponible 40 min après l'heure du relevé.

4 Pour les stations d'altitude (plus de 600m) le géopotentiel du niveau le plus proche de la pression obligatoire est indiqué.

5 Les stations disposant d'un diffuseur peuvent indiquer "trace". Cela signifie que des précipitations ont touchés le sol mais que la quantité est inférieure à 0.1 mm.

Récapitulatif de la journée
Température [°C] Vent [km/h] Ensoleillement4 [h] Precipitations totale5 [mm] Pression [Hpa]
Min1 Max.2 Moy.3 Max. Min Max.
16.5 27.8 0 25.9 0 h 0 min 0 1011.2 1014.3

1 Température minimale relevée entre 18:00 UTC la veille et 18:00 UTC le jour donné.

2 Température maximale relevée entre 06:00 UTC le jour donné et 06:00 UTC le lendemain.

3 Vent moyen de la journée basé sur les relevés horaires.

4 Ensoleillement en heures relevé entre 06:00 UTC la veille et 06:00 UTC le jour donné.

5 Précipitations totales tombées entre 06:00 UTC la jour donné et 06:00 UTC le lendemain.

Graphiques horaires